sensor_id;sensor_type;location;lat;lon;timestamp;temperature;humidity
11093;DHT22;5600;50.864;6.102;2022-11-23T00:01:17;9.30;99.90
11093;DHT22;5600;50.864;6.102;2022-11-23T00:04:18;9.30;99.90
11093;DHT22;5600;50.864;6.102;2022-11-23T00:07:18;9.30;99.90
11093;DHT22;5600;50.864;6.102;2022-11-23T00:10:19;9.30;99.90
11093;DHT22;5600;50.864;6.102;2022-11-23T00:13:20;9.40;99.90
11093;DHT22;5600;50.864;6.102;2022-11-23T00:16:24;9.40;99.90
11093;DHT22;5600;50.864;6.102;2022-11-23T00:19:25;9.30;99.90
11093;DHT22;5600;50.864;6.102;2022-11-23T00:22:25;9.20;99.90
11093;DHT22;5600;50.864;6.102;2022-11-23T00:25:26;9.20;99.90
11093;DHT22;5600;50.864;6.102;2022-11-23T00:28:27;9.20;99.90
11093;DHT22;5600;50.864;6.102;2022-11-23T00:31:27;9.20;99.90
11093;DHT22;5600;50.864;6.102;2022-11-23T00:34:28;9.20;99.90
11093;DHT22;5600;50.864;6.102;2022-11-23T00:37:29;9.20;99.90
11093;DHT22;5600;50.864;6.102;2022-11-23T00:40:30;9.20;99.90
11093;DHT22;5600;50.864;6.102;2022-11-23T00:43:31;9.30;99.90
11093;DHT22;5600;50.864;6.102;2022-11-23T00:46:32;9.30;99.90
11093;DHT22;5600;50.864;6.102;2022-11-23T00:49:32;9.30;99.90
11093;DHT22;5600;50.864;6.102;2022-11-23T00:52:33;9.20;99.90
11093;DHT22;5600;50.864;6.102;2022-11-23T00:55:34;9.10;99.90
11093;DHT22;5600;50.864;6.102;2022-11-23T00:58:35;9.10;99.90
11093;DHT22;5600;50.864;6.102;2022-11-23T01:01:38;9.00;99.90
11093;DHT22;5600;50.864;6.102;2022-11-23T01:04:39;9.10;99.90
11093;DHT22;5600;50.864;6.102;2022-11-23T01:07:39;9.10;99.90
11093;DHT22;5600;50.864;6.102;2022-11-23T01:10:40;9.10;99.90
11093;DHT22;5600;50.864;6.102;2022-11-23T01:13:41;9.10;99.90
11093;DHT22;5600;50.864;6.102;2022-11-23T01:16:42;9.20;99.90
11093;DHT22;5600;50.864;6.102;2022-11-23T01:19:43;9.20;99.90
11093;DHT22;5600;50.864;6.102;2022-11-23T01:22:46;9.30;99.90
11093;DHT22;5600;50.864;6.102;2022-11-23T01:25:47;9.30;99.90
11093;DHT22;5600;50.864;6.102;2022-11-23T01:28:48;9.30;99.90
11093;DHT22;5600;50.864;6.102;2022-11-23T01:31:49;9.30;99.90
11093;DHT22;5600;50.864;6.102;2022-11-23T01:34:49;9.40;99.90
11093;DHT22;5600;50.864;6.102;2022-11-23T01:37:50;9.40;99.90
11093;DHT22;5600;50.864;6.102;2022-11-23T01:40:50;9.40;99.90
11093;DHT22;5600;50.864;6.102;2022-11-23T01:43:52;9.40;99.90
11093;DHT22;5600;50.864;6.102;2022-11-23T01:46:54;9.40;99.90
11093;DHT22;5600;50.864;6.102;2022-11-23T01:49:54;9.40;99.90
11093;DHT22;5600;50.864;6.102;2022-11-23T01:52:56;9.40;99.90
11093;DHT22;5600;50.864;6.102;2022-11-23T01:56:00;9.50;99.90
11093;DHT22;5600;50.864;6.102;2022-11-23T01:59:04;9.50;99.90
11093;DHT22;5600;50.864;6.102;2022-11-23T02:02:05;9.60;99.90
11093;DHT22;5600;50.864;6.102;2022-11-23T02:05:07;9.50;99.90
11093;DHT22;5600;50.864;6.102;2022-11-23T02:08:08;9.50;99.90
11093;DHT22;5600;50.864;6.102;2022-11-23T02:11:11;9.50;99.90
11093;DHT22;5600;50.864;6.102;2022-11-23T02:14:12;9.50;99.90
11093;DHT22;5600;50.864;6.102;2022-11-23T02:17:14;9.50;99.90
11093;DHT22;5600;50.864;6.102;2022-11-23T02:20:17;9.50;99.90
11093;DHT22;5600;50.864;6.102;2022-11-23T02:23:24;9.60;99.90
11093;DHT22;5600;50.864;6.102;2022-11-23T02:26:29;9.50;99.90
11093;DHT22;5600;50.864;6.102;2022-11-23T02:29:30;9.40;99.90
11093;DHT22;5600;50.864;6.102;2022-11-23T02:32:34;9.50;99.90
11093;DHT22;5600;50.864;6.102;2022-11-23T02:35:51;9.40;99.90
11093;DHT22;5600;50.864;6.102;2022-11-23T02:38:52;9.30;99.90
11093;DHT22;5600;50.864;6.102;2022-11-23T02:41:56;9.20;99.90
11093;DHT22;5600;50.864;6.102;2022-11-23T02:45:15;9.30;99.90
11093;DHT22;5600;50.864;6.102;2022-11-23T02:48:18;9.20;99.90
11093;DHT22;5600;50.864;6.102;2022-11-23T02:51:18;9.20;99.90
11093;DHT22;5600;50.864;6.102;2022-11-23T02:54:19;9.30;99.90
11093;DHT22;5600;50.864;6.102;2022-11-23T02:57:20;9.30;99.90
11093;DHT22;5600;50.864;6.102;2022-11-23T03:00:21;9.40;99.90
11093;DHT22;5600;50.864;6.102;2022-11-23T03:03:21;9.40;99.90
11093;DHT22;5600;50.864;6.102;2022-11-23T03:06:22;9.40;99.90
11093;DHT22;5600;50.864;6.102;2022-11-23T03:09:23;9.40;99.90
11093;DHT22;5600;50.864;6.102;2022-11-23T03:12:25;9.40;99.90
11093;DHT22;5600;50.864;6.102;2022-11-23T03:15:26;9.40;99.90
11093;DHT22;5600;50.864;6.102;2022-11-23T03:18:28;9.50;99.90
11093;DHT22;5600;50.864;6.102;2022-11-23T03:21:29;9.40;99.90
11093;DHT22;5600;50.864;6.102;2022-11-23T03:24:29;9.40;99.90
11093;DHT22;5600;50.864;6.102;2022-11-23T03:27:30;9.30;99.90
11093;DHT22;5600;50.864;6.102;2022-11-23T03:30:33;9.30;99.90
11093;DHT22;5600;50.864;6.102;2022-11-23T03:33:35;9.40;99.90
11093;DHT22;5600;50.864;6.102;2022-11-23T03:36:36;9.30;99.90
11093;DHT22;5600;50.864;6.102;2022-11-23T03:39:38;9.30;99.90
11093;DHT22;5600;50.864;6.102;2022-11-23T03:43:01;9.40;99.90
11093;DHT22;5600;50.864;6.102;2022-11-23T03:46:02;9.40;99.90
11093;DHT22;5600;50.864;6.102;2022-11-23T03:49:03;9.40;99.90
11093;DHT22;5600;50.864;6.102;2022-11-23T03:52:03;9.40;99.90
11093;DHT22;5600;50.864;6.102;2022-11-23T03:55:05;9.40;99.90
11093;DHT22;5600;50.864;6.102;2022-11-23T03:58:06;9.30;99.90
11093;DHT22;5600;50.864;6.102;2022-11-23T04:01:09;9.20;99.90
11093;DHT22;5600;50.864;6.102;2022-11-23T04:04:11;9.30;99.90
11093;DHT22;5600;50.864;6.102;2022-11-23T04:07:27;9.20;99.90
11093;DHT22;5600;50.864;6.102;2022-11-23T04:10:29;9.30;99.90
11093;DHT22;5600;50.864;6.102;2022-11-23T04:13:38;9.30;99.90
11093;DHT22;5600;50.864;6.102;2022-11-23T04:16:39;9.30;99.90
11093;DHT22;5600;50.864;6.102;2022-11-23T04:19:39;9.20;99.90
11093;DHT22;5600;50.864;6.102;2022-11-23T04:22:40;9.20;99.90
11093;DHT22;5600;50.864;6.102;2022-11-23T04:25:41;9.10;99.90
11093;DHT22;5600;50.864;6.102;2022-11-23T04:28:43;9.20;99.90
11093;DHT22;5600;50.864;6.102;2022-11-23T04:31:44;9.20;99.90
11093;DHT22;5600;50.864;6.102;2022-11-23T04:34:48;9.10;99.90
11093;DHT22;5600;50.864;6.102;2022-11-23T04:37:49;9.10;99.90
11093;DHT22;5600;50.864;6.102;2022-11-23T04:40:50;9.10;99.90
11093;DHT22;5600;50.864;6.102;2022-11-23T04:43:51;9.10;99.90
11093;DHT22;5600;50.864;6.102;2022-11-23T04:46:53;9.10;99.90
11093;DHT22;5600;50.864;6.102;2022-11-23T04:49:54;8.90;99.90
11093;DHT22;5600;50.864;6.102;2022-11-23T04:52:55;9.00;99.90
11093;DHT22;5600;50.864;6.102;2022-11-23T04:56:02;9.00;99.90
11093;DHT22;5600;50.864;6.102;2022-11-23T04:59:07;9.00;99.90
11093;DHT22;5600;50.864;6.102;2022-11-23T05:02:08;8.80;99.90
11093;DHT22;5600;50.864;6.102;2022-11-23T05:05:09;8.80;99.90
11093;DHT22;5600;50.864;6.102;2022-11-23T05:08:11;8.70;99.90
11093;DHT22;5600;50.864;6.102;2022-11-23T05:11:23;8.70;99.90
11093;DHT22;5600;50.864;6.102;2022-11-23T05:14:24;8.80;99.90
11093;DHT22;5600;50.864;6.102;2022-11-23T05:17:25;8.70;99.90
11093;DHT22;5600;50.864;6.102;2022-11-23T05:20:29;8.90;99.90
11093;DHT22;5600;50.864;6.102;2022-11-23T05:23:29;8.80;99.90
11093;DHT22;5600;50.864;6.102;2022-11-23T05:26:32;8.90;99.90
11093;DHT22;5600;50.864;6.102;2022-11-23T05:29:32;8.90;99.90
11093;DHT22;5600;50.864;6.102;2022-11-23T05:32:33;8.80;99.90
11093;DHT22;5600;50.864;6.102;2022-11-23T05:35:35;8.70;99.90
11093;DHT22;5600;50.864;6.102;2022-11-23T05:38:37;8.80;99.90
11093;DHT22;5600;50.864;6.102;2022-11-23T05:41:44;8.80;99.90
11093;DHT22;5600;50.864;6.102;2022-11-23T05:44:59;8.70;99.90
11093;DHT22;5600;50.864;6.102;2022-11-23T05:48:09;8.70;99.90
11093;DHT22;5600;50.864;6.102;2022-11-23T05:51:33;8.70;99.90
11093;DHT22;5600;50.864;6.102;2022-11-23T05:54:34;8.60;99.90
11093;DHT22;5600;50.864;6.102;2022-11-23T05:57:48;8.50;99.90
11093;DHT22;5600;50.864;6.102;2022-11-23T06:00:50;8.50;99.90
11093;DHT22;5600;50.864;6.102;2022-11-23T06:03:52;8.50;99.90
11093;DHT22;5600;50.864;6.102;2022-11-23T06:06:52;8.50;99.90
11093;DHT22;5600;50.864;6.102;2022-11-23T06:09:54;8.40;99.90
11093;DHT22;5600;50.864;6.102;2022-11-23T06:12:58;8.30;99.90
11093;DHT22;5600;50.864;6.102;2022-11-23T06:16:01;8.30;99.90
11093;DHT22;5600;50.864;6.102;2022-11-23T06:19:11;8.30;99.90
11093;DHT22;5600;50.864;6.102;2022-11-23T06:22:14;8.30;99.90
11093;DHT22;5600;50.864;6.102;2022-11-23T06:25:23;8.30;99.90
11093;DHT22;5600;50.864;6.102;2022-11-23T06:28:30;8.30;99.90
11093;DHT22;5600;50.864;6.102;2022-11-23T06:31:32;8.20;99.90
11093;DHT22;5600;50.864;6.102;2022-11-23T06:34:33;8.20;99.90
11093;DHT22;5600;50.864;6.102;2022-11-23T06:37:33;8.30;99.90
11093;DHT22;5600;50.864;6.102;2022-11-23T06:40:34;8.40;99.90
11093;DHT22;5600;50.864;6.102;2022-11-23T06:43:37;8.40;99.90
11093;DHT22;5600;50.864;6.102;2022-11-23T06:46:38;8.30;99.90
11093;DHT22;5600;50.864;6.102;2022-11-23T06:49:39;8.30;99.90
11093;DHT22;5600;50.864;6.102;2022-11-23T06:52:56;8.30;99.90
11093;DHT22;5600;50.864;6.102;2022-11-23T06:56:08;8.30;99.90
11093;DHT22;5600;50.864;6.102;2022-11-23T06:59:09;8.30;99.90
11093;DHT22;5600;50.864;6.102;2022-11-23T07:02:11;8.20;99.90
11093;DHT22;5600;50.864;6.102;2022-11-23T07:05:12;8.20;99.90
11093;DHT22;5600;50.864;6.102;2022-11-23T07:08:14;8.10;99.90
11093;DHT22;5600;50.864;6.102;2022-11-23T07:11:15;8.10;99.90
11093;DHT22;5600;50.864;6.102;2022-11-23T07:14:16;8.10;99.90
11093;DHT22;5600;50.864;6.102;2022-11-23T07:17:20;8.00;99.90
11093;DHT22;5600;50.864;6.102;2022-11-23T07:20:21;7.90;99.90
11093;DHT22;5600;50.864;6.102;2022-11-23T07:23:22;7.90;99.90
11093;DHT22;5600;50.864;6.102;2022-11-23T07:26:23;7.90;99.90
11093;DHT22;5600;50.864;6.102;2022-11-23T07:29:24;7.90;99.90
11093;DHT22;5600;50.864;6.102;2022-11-23T07:32:25;7.90;99.90
11093;DHT22;5600;50.864;6.102;2022-11-23T07:35:26;7.90;99.90
11093;DHT22;5600;50.864;6.102;2022-11-23T07:38:28;7.80;99.90
11093;DHT22;5600;50.864;6.102;2022-11-23T07:41:29;7.80;99.90
11093;DHT22;5600;50.864;6.102;2022-11-23T07:44:40;7.80;99.90
11093;DHT22;5600;50.864;6.102;2022-11-23T07:47:44;7.80;99.90
11093;DHT22;5600;50.864;6.102;2022-11-23T07:50:45;7.90;99.90
11093;DHT22;5600;50.864;6.102;2022-11-23T07:53:46;7.90;99.90
11093;DHT22;5600;50.864;6.102;2022-11-23T07:56:46;7.90;99.90
11093;DHT22;5600;50.864;6.102;2022-11-23T07:59:47;8.00;99.90
11093;DHT22;5600;50.864;6.102;2022-11-23T08:02:48;8.20;99.90
11093;DHT22;5600;50.864;6.102;2022-11-23T08:05:49;8.40;99.90
11093;DHT22;5600;50.864;6.102;2022-11-23T08:08:49;8.70;99.90
11093;DHT22;5600;50.864;6.102;2022-11-23T08:11:50;9.00;99.90
11093;DHT22;5600;50.864;6.102;2022-11-23T08:14:51;9.30;99.90
11093;DHT22;5600;50.864;6.102;2022-11-23T08:18:00;9.60;99.90
11093;DHT22;5600;50.864;6.102;2022-11-23T08:21:02;10.00;99.90
11093;DHT22;5600;50.864;6.102;2022-11-23T08:24:02;10.20;99.90
11093;DHT22;5600;50.864;6.102;2022-11-23T08:27:03;10.30;99.90
11093;DHT22;5600;50.864;6.102;2022-11-23T08:30:04;10.50;99.90
11093;DHT22;5600;50.864;6.102;2022-11-23T08:33:06;10.60;99.90
11093;DHT22;5600;50.864;6.102;2022-11-23T08:36:07;10.80;99.90
11093;DHT22;5600;50.864;6.102;2022-11-23T08:39:08;10.70;99.90
11093;DHT22;5600;50.864;6.102;2022-11-23T08:42:10;10.40;99.90
11093;DHT22;5600;50.864;6.102;2022-11-23T08:45:11;10.40;99.90
11093;DHT22;5600;50.864;6.102;2022-11-23T08:48:12;10.30;99.90
11093;DHT22;5600;50.864;6.102;2022-11-23T08:51:13;10.30;99.90
11093;DHT22;5600;50.864;6.102;2022-11-23T08:54:14;10.20;99.90
11093;DHT22;5600;50.864;6.102;2022-11-23T08:57:14;10.20;99.90
11093;DHT22;5600;50.864;6.102;2022-11-23T09:00:15;10.20;99.90
11093;DHT22;5600;50.864;6.102;2022-11-23T09:03:16;10.10;99.90
11093;DHT22;5600;50.864;6.102;2022-11-23T09:06:17;10.20;99.90
11093;DHT22;5600;50.864;6.102;2022-11-23T09:09:17;10.10;99.90
11093;DHT22;5600;50.864;6.102;2022-11-23T09:12:18;10.40;99.90
11093;DHT22;5600;50.864;6.102;2022-11-23T09:15:19;10.30;99.90
11093;DHT22;5600;50.864;6.102;2022-11-23T09:18:20;10.20;99.90
11093;DHT22;5600;50.864;6.102;2022-11-23T09:21:21;10.30;99.90
11093;DHT22;5600;50.864;6.102;2022-11-23T09:24:21;10.20;99.90
11093;DHT22;5600;50.864;6.102;2022-11-23T09:27:22;10.10;99.90
11093;DHT22;5600;50.864;6.102;2022-11-23T09:30:25;10.10;99.90
11093;DHT22;5600;50.864;6.102;2022-11-23T09:33:25;10.10;99.90
11093;DHT22;5600;50.864;6.102;2022-11-23T09:36:26;9.90;99.90
11093;DHT22;5600;50.864;6.102;2022-11-23T09:39:28;9.70;99.90
11093;DHT22;5600;50.864;6.102;2022-11-23T09:46:02;9.50;99.90
11093;DHT22;5600;50.864;6.102;2022-11-23T09:49:17;9.50;99.90
11093;DHT22;5600;50.864;6.102;2022-11-23T09:52:22;9.50;99.90
11093;DHT22;5600;50.864;6.102;2022-11-23T09:55:35;9.60;99.90
11093;DHT22;5600;50.864;6.102;2022-11-23T09:58:38;9.70;99.90
11093;DHT22;5600;50.864;6.102;2022-11-23T10:01:40;9.80;99.90
11093;DHT22;5600;50.864;6.102;2022-11-23T10:04:41;9.80;99.90
11093;DHT22;5600;50.864;6.102;2022-11-23T10:08:09;10.00;99.90
11093;DHT22;5600;50.864;6.102;2022-11-23T10:11:30;10.10;99.90
11093;DHT22;5600;50.864;6.102;2022-11-23T10:18:04;10.40;99.90
11093;DHT22;5600;50.864;6.102;2022-11-23T10:21:43;10.50;99.90
11093;DHT22;5600;50.864;6.102;2022-11-23T10:24:51;10.60;99.90
11093;DHT22;5600;50.864;6.102;2022-11-23T10:28:00;10.80;99.90
11093;DHT22;5600;50.864;6.102;2022-11-23T10:34:15;11.00;99.90
11093;DHT22;5600;50.864;6.102;2022-11-23T10:37:17;11.10;99.90
11093;DHT22;5600;50.864;6.102;2022-11-23T10:40:21;11.10;99.90
11093;DHT22;5600;50.864;6.102;2022-11-23T10:43:26;11.10;99.90
11093;DHT22;5600;50.864;6.102;2022-11-23T10:46:31;11.40;99.90
11093;DHT22;5600;50.864;6.102;2022-11-23T10:49:37;11.40;99.90
11093;DHT22;5600;50.864;6.102;2022-11-23T10:52:38;11.30;99.90
11093;DHT22;5600;50.864;6.102;2022-11-23T10:56:05;11.30;99.90
11093;DHT22;5600;50.864;6.102;2022-11-23T10:59:32;11.40;99.90
11093;DHT22;5600;50.864;6.102;2022-11-23T11:02:42;11.40;99.90
11093;DHT22;5600;50.864;6.102;2022-11-23T11:05:50;11.30;99.90
11093;DHT22;5600;50.864;6.102;2022-11-23T11:08:55;11.20;99.90
11093;DHT22;5600;50.864;6.102;2022-11-23T11:11:57;11.20;99.90
11093;DHT22;5600;50.864;6.102;2022-11-23T11:18:03;11.30;99.90
11093;DHT22;5600;50.864;6.102;2022-11-23T11:21:06;11.20;99.90
11093;DHT22;5600;50.864;6.102;2022-11-23T11:24:32;11.10;99.90
11093;DHT22;5600;50.864;6.102;2022-11-23T11:27:35;11.10;99.90
11093;DHT22;5600;50.864;6.102;2022-11-23T11:30:45;11.20;99.90
11093;DHT22;5600;50.864;6.102;2022-11-23T11:33:52;11.30;99.90
11093;DHT22;5600;50.864;6.102;2022-11-23T11:40:44;11.20;99.90
11093;DHT22;5600;50.864;6.102;2022-11-23T11:44:32;11.30;99.90
11093;DHT22;5600;50.864;6.102;2022-11-23T11:47:30;11.00;99.90
11093;DHT22;5600;50.864;6.102;2022-11-23T11:50:43;11.10;99.90
11093;DHT22;5600;50.864;6.102;2022-11-23T11:53:56;11.00;99.90
11093;DHT22;5600;50.864;6.102;2022-11-23T11:57:44;10.80;99.90
11093;DHT22;5600;50.864;6.102;2022-11-23T12:00:47;10.80;99.90
11093;DHT22;5600;50.864;6.102;2022-11-23T12:04:05;11.10;99.90
11093;DHT22;5600;50.864;6.102;2022-11-23T12:10:43;11.30;99.90
11093;DHT22;5600;50.864;6.102;2022-11-23T12:13:46;11.40;99.90
11093;DHT22;5600;50.864;6.102;2022-11-23T12:16:59;11.40;99.90
11093;DHT22;5600;50.864;6.102;2022-11-23T12:20:29;11.10;99.90
11093;DHT22;5600;50.864;6.102;2022-11-23T12:30:29;10.90;99.90
11093;DHT22;5600;50.864;6.102;2022-11-23T12:49:54;10.90;99.90
11093;DHT22;5600;50.864;6.102;2022-11-23T13:00:27;10.80;99.90
11093;DHT22;5600;50.864;6.102;2022-11-23T13:03:18;10.80;99.90
11093;DHT22;5600;50.864;6.102;2022-11-23T13:10:24;10.70;99.90
11093;DHT22;5600;50.864;6.102;2022-11-23T13:17:07;10.90;99.90
11093;DHT22;5600;50.864;6.102;2022-11-23T13:20:27;10.90;99.90
11093;DHT22;5600;50.864;6.102;2022-11-23T13:23:37;11.00;99.90
11093;DHT22;5600;50.864;6.102;2022-11-23T13:26:38;11.10;99.90
11093;DHT22;5600;50.864;6.102;2022-11-23T13:33:00;10.90;99.90
11093;DHT22;5600;50.864;6.102;2022-11-23T13:36:01;10.90;99.90
11093;DHT22;5600;50.864;6.102;2022-11-23T13:39:02;10.80;99.90
11093;DHT22;5600;50.864;6.102;2022-11-23T13:42:04;10.80;99.90
11093;DHT22;5600;50.864;6.102;2022-11-23T13:48:21;10.70;99.90
11093;DHT22;5600;50.864;6.102;2022-11-23T13:51:31;10.70;99.90
11093;DHT22;5600;50.864;6.102;2022-11-23T13:54:32;10.60;99.90
11093;DHT22;5600;50.864;6.102;2022-11-23T13:57:33;10.60;99.90
11093;DHT22;5600;50.864;6.102;2022-11-23T14:00:54;10.50;99.90
11093;DHT22;5600;50.864;6.102;2022-11-23T14:03:55;10.70;99.90
11093;DHT22;5600;50.864;6.102;2022-11-23T14:07:03;10.70;99.90
11093;DHT22;5600;50.864;6.102;2022-11-23T14:10:22;10.70;99.90
11093;DHT22;5600;50.864;6.102;2022-11-23T14:13:31;10.80;99.90
11093;DHT22;5600;50.864;6.102;2022-11-23T14:20:35;10.80;99.90
11093;DHT22;5600;50.864;6.102;2022-11-23T14:30:54;10.30;99.90
11093;DHT22;5600;50.864;6.102;2022-11-23T14:34:06;10.00;99.90
11093;DHT22;5600;50.864;6.102;2022-11-23T14:37:19;9.80;99.90
11093;DHT22;5600;50.864;6.102;2022-11-23T14:43:51;9.70;99.90
11093;DHT22;5600;50.864;6.102;2022-11-23T14:47:07;9.50;99.90
11093;DHT22;5600;50.864;6.102;2022-11-23T14:50:20;9.30;99.90
11093;DHT22;5600;50.864;6.102;2022-11-23T14:53:24;9.10;99.90
11093;DHT22;5600;50.864;6.102;2022-11-23T14:56:38;8.90;99.90
11093;DHT22;5600;50.864;6.102;2022-11-23T14:59:40;8.70;99.90
11093;DHT22;5600;50.864;6.102;2022-11-23T15:02:42;8.60;99.90
11093;DHT22;5600;50.864;6.102;2022-11-23T15:05:46;8.60;99.90
11093;DHT22;5600;50.864;6.102;2022-11-23T15:09:00;8.50;99.90
11093;DHT22;5600;50.864;6.102;2022-11-23T15:12:07;8.50;99.90
11093;DHT22;5600;50.864;6.102;2022-11-23T15:15:23;8.30;99.90
11093;DHT22;5600;50.864;6.102;2022-11-23T15:18:28;8.40;99.90
11093;DHT22;5600;50.864;6.102;2022-11-23T15:21:29;8.30;99.90
11093;DHT22;5600;50.864;6.102;2022-11-23T15:24:30;8.40;99.90
11093;DHT22;5600;50.864;6.102;2022-11-23T15:27:30;8.40;99.90
11093;DHT22;5600;50.864;6.102;2022-11-23T15:30:31;8.40;99.90
11093;DHT22;5600;50.864;6.102;2022-11-23T15:33:32;8.50;99.90
11093;DHT22;5600;50.864;6.102;2022-11-23T15:36:35;8.40;99.90
11093;DHT22;5600;50.864;6.102;2022-11-23T15:39:37;8.20;99.90
11093;DHT22;5600;50.864;6.102;2022-11-23T15:42:38;8.20;99.90
11093;DHT22;5600;50.864;6.102;2022-11-23T15:48:47;8.10;99.90
11093;DHT22;5600;50.864;6.102;2022-11-23T15:51:49;7.90;99.90
11093;DHT22;5600;50.864;6.102;2022-11-23T15:54:52;7.90;99.90
11093;DHT22;5600;50.864;6.102;2022-11-23T15:57:54;7.90;99.90
11093;DHT22;5600;50.864;6.102;2022-11-23T16:01:10;7.90;99.90
11093;DHT22;5600;50.864;6.102;2022-11-23T16:04:39;7.80;99.90
11093;DHT22;5600;50.864;6.102;2022-11-23T16:07:54;7.70;99.90
11093;DHT22;5600;50.864;6.102;2022-11-23T16:10:56;7.70;99.90
11093;DHT22;5600;50.864;6.102;2022-11-23T16:14:12;7.70;99.90
11093;DHT22;5600;50.864;6.102;2022-11-23T16:20:17;7.60;99.90
11093;DHT22;5600;50.864;6.102;2022-11-23T16:23:26;7.50;99.90
11093;DHT22;5600;50.864;6.102;2022-11-23T16:26:30;7.40;99.90
11093;DHT22;5600;50.864;6.102;2022-11-23T16:29:35;7.30;99.90
11093;DHT22;5600;50.864;6.102;2022-11-23T16:32:36;7.30;99.90
11093;DHT22;5600;50.864;6.102;2022-11-23T16:35:36;7.10;99.90
11093;DHT22;5600;50.864;6.102;2022-11-23T16:38:37;7.10;99.90
11093;DHT22;5600;50.864;6.102;2022-11-23T16:41:38;7.10;99.90
11093;DHT22;5600;50.864;6.102;2022-11-23T16:44:39;7.10;99.90
11093;DHT22;5600;50.864;6.102;2022-11-23T16:48:00;7.20;99.90
11093;DHT22;5600;50.864;6.102;2022-11-23T16:51:01;7.10;99.90
11093;DHT22;5600;50.864;6.102;2022-11-23T16:54:01;7.10;99.90
11093;DHT22;5600;50.864;6.102;2022-11-23T16:57:02;7.00;99.90
11093;DHT22;5600;50.864;6.102;2022-11-23T17:00:15;7.00;99.90
11093;DHT22;5600;50.864;6.102;2022-11-23T17:03:18;7.10;99.90
11093;DHT22;5600;50.864;6.102;2022-11-23T17:06:19;7.00;99.90
11093;DHT22;5600;50.864;6.102;2022-11-23T17:09:22;7.00;99.90
11093;DHT22;5600;50.864;6.102;2022-11-23T17:12:23;7.00;99.90
11093;DHT22;5600;50.864;6.102;2022-11-23T17:15:24;7.00;99.90
11093;DHT22;5600;50.864;6.102;2022-11-23T17:18:24;7.00;99.90
11093;DHT22;5600;50.864;6.102;2022-11-23T17:21:25;7.00;99.90
11093;DHT22;5600;50.864;6.102;2022-11-23T17:24:26;7.10;99.90
11093;DHT22;5600;50.864;6.102;2022-11-23T17:27:27;7.00;99.90
11093;DHT22;5600;50.864;6.102;2022-11-23T17:30:30;7.00;99.90
11093;DHT22;5600;50.864;6.102;2022-11-23T17:33:32;7.00;99.90
11093;DHT22;5600;50.864;6.102;2022-11-23T17:36:32;7.10;99.90
11093;DHT22;5600;50.864;6.102;2022-11-23T17:39:33;7.20;99.90
11093;DHT22;5600;50.864;6.102;2022-11-23T17:42:34;7.40;99.90
11093;DHT22;5600;50.864;6.102;2022-11-23T17:45:34;7.30;99.90
11093;DHT22;5600;50.864;6.102;2022-11-23T17:48:35;7.30;99.90
11093;DHT22;5600;50.864;6.102;2022-11-23T17:51:36;7.30;99.90
11093;DHT22;5600;50.864;6.102;2022-11-23T17:54:37;7.30;99.90
11093;DHT22;5600;50.864;6.102;2022-11-23T17:57:37;7.30;99.90
11093;DHT22;5600;50.864;6.102;2022-11-23T18:00:38;7.40;99.90
11093;DHT22;5600;50.864;6.102;2022-11-23T18:03:40;7.40;99.90
11093;DHT22;5600;50.864;6.102;2022-11-23T18:06:41;7.50;99.90
11093;DHT22;5600;50.864;6.102;2022-11-23T18:09:42;7.50;99.90
11093;DHT22;5600;50.864;6.102;2022-11-23T18:12:43;7.50;99.90
11093;DHT22;5600;50.864;6.102;2022-11-23T18:15:44;7.50;99.90
11093;DHT22;5600;50.864;6.102;2022-11-23T18:18:46;7.50;99.90
11093;DHT22;5600;50.864;6.102;2022-11-23T18:21:46;7.40;99.90
11093;DHT22;5600;50.864;6.102;2022-11-23T18:24:48;7.40;99.90
11093;DHT22;5600;50.864;6.102;2022-11-23T18:27:48;7.40;99.90
11093;DHT22;5600;50.864;6.102;2022-11-23T18:30:49;7.50;99.90
11093;DHT22;5600;50.864;6.102;2022-11-23T18:33:50;7.50;99.90
11093;DHT22;5600;50.864;6.102;2022-11-23T18:36:50;7.50;99.90
11093;DHT22;5600;50.864;6.102;2022-11-23T18:39:51;7.60;99.90
11093;DHT22;5600;50.864;6.102;2022-11-23T18:42:52;7.50;99.90
11093;DHT22;5600;50.864;6.102;2022-11-23T18:45:53;7.60;99.90
11093;DHT22;5600;50.864;6.102;2022-11-23T18:48:54;7.60;99.90
11093;DHT22;5600;50.864;6.102;2022-11-23T18:51:56;7.60;99.90
11093;DHT22;5600;50.864;6.102;2022-11-23T18:54:57;7.70;99.90
11093;DHT22;5600;50.864;6.102;2022-11-23T18:57:59;7.70;99.90
11093;DHT22;5600;50.864;6.102;2022-11-23T19:01:08;7.70;99.90
11093;DHT22;5600;50.864;6.102;2022-11-23T19:04:10;7.70;99.90
11093;DHT22;5600;50.864;6.102;2022-11-23T19:07:10;7.70;99.90
11093;DHT22;5600;50.864;6.102;2022-11-23T19:10:12;7.70;99.90
11093;DHT22;5600;50.864;6.102;2022-11-23T19:13:12;7.70;99.90
11093;DHT22;5600;50.864;6.102;2022-11-23T19:16:22;7.70;99.90
11093;DHT22;5600;50.864;6.102;2022-11-23T19:19:23;7.70;99.90
11093;DHT22;5600;50.864;6.102;2022-11-23T19:22:24;7.70;99.90
11093;DHT22;5600;50.864;6.102;2022-11-23T19:25:24;7.70;99.90
11093;DHT22;5600;50.864;6.102;2022-11-23T19:28:25;7.80;99.90
11093;DHT22;5600;50.864;6.102;2022-11-23T19:31:28;7.70;99.90
11093;DHT22;5600;50.864;6.102;2022-11-23T19:34:29;7.80;99.90
11093;DHT22;5600;50.864;6.102;2022-11-23T19:37:29;7.90;99.90
11093;DHT22;5600;50.864;6.102;2022-11-23T19:40:30;7.90;99.90
11093;DHT22;5600;50.864;6.102;2022-11-23T19:43:31;7.90;99.90
11093;DHT22;5600;50.864;6.102;2022-11-23T19:46:32;7.90;99.90
11093;DHT22;5600;50.864;6.102;2022-11-23T19:49:32;7.90;99.90
11093;DHT22;5600;50.864;6.102;2022-11-23T19:52:33;8.00;99.90
11093;DHT22;5600;50.864;6.102;2022-11-23T19:55:37;8.00;99.90
11093;DHT22;5600;50.864;6.102;2022-11-23T19:58:38;8.10;99.90
11093;DHT22;5600;50.864;6.102;2022-11-23T20:01:39;8.10;99.90
11093;DHT22;5600;50.864;6.102;2022-11-23T20:04:40;8.20;99.90
11093;DHT22;5600;50.864;6.102;2022-11-23T20:07:40;8.20;99.90
11093;DHT22;5600;50.864;6.102;2022-11-23T20:10:41;8.20;99.90
11093;DHT22;5600;50.864;6.102;2022-11-23T20:13:42;8.20;99.90
11093;DHT22;5600;50.864;6.102;2022-11-23T20:16:43;8.20;99.90
11093;DHT22;5600;50.864;6.102;2022-11-23T20:19:43;8.20;99.90
11093;DHT22;5600;50.864;6.102;2022-11-23T20:22:44;8.20;99.90
11093;DHT22;5600;50.864;6.102;2022-11-23T20:25:45;8.20;99.90
11093;DHT22;5600;50.864;6.102;2022-11-23T20:28:49;8.30;99.90
11093;DHT22;5600;50.864;6.102;2022-11-23T20:31:50;8.40;99.90
11093;DHT22;5600;50.864;6.102;2022-11-23T20:34:51;8.50;99.90
11093;DHT22;5600;50.864;6.102;2022-11-23T20:37:51;8.60;99.90
11093;DHT22;5600;50.864;6.102;2022-11-23T20:40:52;8.60;99.90
11093;DHT22;5600;50.864;6.102;2022-11-23T20:43:59;8.70;99.90
11093;DHT22;5600;50.864;6.102;2022-11-23T20:47:01;8.80;99.90
11093;DHT22;5600;50.864;6.102;2022-11-23T20:50:02;8.80;99.90
11093;DHT22;5600;50.864;6.102;2022-11-23T20:53:03;8.90;99.90
11093;DHT22;5600;50.864;6.102;2022-11-23T20:56:09;8.90;99.90
11093;DHT22;5600;50.864;6.102;2022-11-23T20:59:11;8.90;99.90
11093;DHT22;5600;50.864;6.102;2022-11-23T21:02:11;9.00;99.90
11093;DHT22;5600;50.864;6.102;2022-11-23T21:05:12;9.00;99.90
11093;DHT22;5600;50.864;6.102;2022-11-23T21:08:13;8.90;99.90
11093;DHT22;5600;50.864;6.102;2022-11-23T21:11:27;8.80;99.90
11093;DHT22;5600;50.864;6.102;2022-11-23T21:14:47;8.90;99.90
11093;DHT22;5600;50.864;6.102;2022-11-23T21:17:48;8.90;99.90
11093;DHT22;5600;50.864;6.102;2022-11-23T21:20:53;9.00;99.90